Time;durP1;ratioP1;P1;durP2;ratioP2;P2;SDS_P1;SDS_P2;PMS_P1;PMS_P2;Temp;Humidity;BMP_temperature;BMP_pressure;BME280_temperature;BME280_humidity;BME280_pressure;Samples;Min_cycle;Max_cycle;Signal;HPM_P1;HPM_P2
2021/06/10 00:00:25;;;;;;;8.95;4.68;;;8.10;95.90;;;;;;5033295;28;20021;-69
2021/06/10 00:02:52;;;;;;;9.90;4.65;;;8.20;95.80;;;;;;5035704;28;20449;-73
2021/06/10 00:05:21;;;;;;;7.70;5.22;;;8.20;95.20;;;;;;5036088;28;20077;-73
2021/06/10 00:07:53;;;;;;;11.30;5.55;;;8.20;95.00;;;;;;5035383;28;20028;-70
2021/06/10 00:10:23;;;;;;;7.30;5.20;;;8.20;95.70;;;;;;5014661;28;20640;-72
2021/06/10 00:12:51;;;;;;;10.18;6.57;;;8.30;95.50;;;;;;5039724;28;20032;-67
2021/06/10 00:15:22;;;;;;;17.65;12.38;;;8.30;95.70;;;;;;5036827;28;20056;-68
2021/06/10 00:17:49;;;;;;;9.50;7.15;;;8.40;95.90;;;;;;5034356;28;20032;-68
2021/06/10 00:20:19;;;;;;;5.97;4.60;;;8.50;95.80;;;;;;5016675;28;20484;-72
2021/06/10 00:22:46;;;;;;;6.88;5.03;;;8.50;95.50;;;;;;5033194;28;20946;-76
2021/06/10 00:25:14;;;;;;;6.47;4.85;;;8.60;95.60;;;;;;5036270;28;20045;-68
2021/06/10 00:27:42;;;;;;;7.07;5.22;;;8.60;95.20;;;;;;5031631;28;20087;-67
2021/06/10 00:30:11;;;;;;;5.18;3.15;;;8.60;95.30;;;;;;5036742;28;20029;-67
2021/06/10 00:32:38;;;;;;;19.70;12.43;;;8.70;95.20;;;;;;5015718;28;20081;-72
2021/06/10 00:35:06;;;;;;;3.60;2.13;;;8.70;95.70;;;;;;5031722;28;20025;-68
2021/06/10 00:37:33;;;;;;;2.40;1.88;;;8.80;95.50;;;;;;5035337;28;20021;-70
2021/06/10 00:40:00;;;;;;;2.65;1.70;;;9.00;94.80;;;;;;5034042;28;20574;-67
2021/06/10 00:42:28;;;;;;;2.80;1.85;;;9.00;94.80;;;;;;5035435;28;20025;-67
2021/06/10 00:44:56;;;;;;;3.95;1.70;;;9.00;94.90;;;;;;5034282;28;20029;-72
2021/06/10 00:47:23;;;;;;;5.90;3.13;;;9.10;94.90;;;;;;5016700;28;20115;-67
2021/06/10 00:49:50;;;;;;;3.30;2.33;;;9.10;95.30;;;;;;5034559;28;20017;-72
2021/06/10 00:52:17;;;;;;;3.70;1.45;;;9.10;95.00;;;;;;5035303;28;20034;-72
2021/06/10 00:54:44;;;;;;;2.65;1.65;;;9.20;94.70;;;;;;5036403;28;20848;-72
2021/06/10 00:57:11;;;;;;;2.50;1.30;;;9.20;94.50;;;;;;5039284;28;20079;-72
2021/06/10 00:59:38;;;;;;;1.60;1.25;;;9.30;94.50;;;;;;5028412;28;20101;-72
2021/06/10 01:02:05;;;;;;;2.45;1.23;;;9.40;95.20;;;;;;5012348;28;20056;-71
2021/06/10 01:04:32;;;;;;;2.80;1.88;;;9.60;94.00;;;;;;5020813;28;20041;-68
2021/06/10 01:07:41;;;;;;;5.65;4.97;;;9.70;94.00;;;;;;5014610;28;20018;-68
2021/06/10 01:10:48;;;;;;;1.67;1.10;;;9.80;94.00;;;;;;4996981;28;20025;-71
2021/06/10 01:13:40;;;;;;;0.80;0.68;;;9.90;93.20;;;;;;4984978;28;20504;-71
2021/06/10 01:16:09;;;;;;;0.50;0.50;;;9.80;93.20;;;;;;5012408;28;20480;-68
2021/06/10 01:18:38;;;;;;;0.60;0.52;;;9.80;94.00;;;;;;5018743;28;20449;-70
2021/06/10 01:21:06;;;;;;;1.45;0.80;;;9.90;93.00;;;;;;5023270;28;20435;-72
2021/06/10 01:23:47;;;;;;;0.93;0.77;;;9.90;93.70;;;;;;5014485;28;20026;-69
2021/06/10 01:26:32;;;;;;;0.73;0.65;;;9.90;93.50;;;;;;5017355;28;20581;-69
2021/06/10 01:29:03;;;;;;;1.83;0.77;;;9.90;93.80;;;;;;5015433;28;20133;-69
2021/06/10 01:31:32;;;;;;;1.63;0.80;;;9.90;93.90;;;;;;5012730;28;20022;-71
2021/06/10 01:34:05;;;;;;;1.00;0.77;;;9.90;93.30;;;;;;5012369;28;20022;-71
2021/06/10 01:36:39;;;;;;;2.03;0.75;;;9.90;93.50;;;;;;5018363;28;20033;-74
2021/06/10 01:39:10;;;;;;;0.80;0.63;;;9.80;93.70;;;;;;5014063;28;20029;-69
2021/06/10 01:41:39;;;;;;;1.35;1.00;;;9.80;93.40;;;;;;5014012;28;20030;-73
2021/06/10 01:44:08;;;;;;;0.55;0.55;;;9.90;94.20;;;;;;5019425;28;20033;-69
2021/06/10 01:46:35;;;;;;;1.15;0.68;;;10.00;94.00;;;;;;5013089;28;20091;-72
2021/06/10 01:49:05;;;;;;;1.95;1.20;;;10.00;93.80;;;;;;5016699;28;20021;-71
2021/06/10 01:51:33;;;;;;;1.67;1.00;;;9.90;93.60;;;;;;4995264;28;20423;-69
2021/06/10 01:54:05;;;;;;;2.00;1.35;;;9.80;93.60;;;;;;5018050;28;20141;-71
2021/06/10 01:56:33;;;;;;;3.47;1.98;;;9.80;93.30;;;;;;5013012;28;20092;-67
2021/06/10 01:59:01;;;;;;;2.40;1.40;;;9.80;93.50;;;;;;5015670;28;20387;-68
2021/06/10 02:01:30;;;;;;;2.58;1.70;;;9.90;93.60;;;;;;5013831;28;20480;-68
2021/06/10 02:03:59;;;;;;;1.25;1.08;;;9.90;93.70;;;;;;5012448;28;20030;-67
2021/06/10 02:06:27;;;;;;;1.88;1.00;;;10.00;93.30;;;;;;5014362;28;20034;-67
2021/06/10 02:08:56;;;;;;;2.50;1.92;;;10.00;93.00;;;;;;5018645;28;20100;-70
2021/06/10 02:11:23;;;;;;;2.08;1.75;;;9.90;93.40;;;;;;5014996;28;20026;-69
2021/06/10 02:13:50;;;;;;;0.98;0.75;;;9.80;94.20;;;;;;5019040;28;20372;-68
2021/06/10 02:16:18;;;;;;;1.00;0.80;;;9.80;93.60;;;;;;5019329;28;20500;-69
2021/06/10 02:18:47;;;;;;;1.08;0.88;;;9.80;94.20;;;;;;5014880;28;20431;-69
2021/06/10 02:21:15;;;;;;;0.82;0.70;;;9.80;94.20;;;;;;5019270;28;20055;-69
2021/06/10 02:23:44;;;;;;;1.25;0.70;;;9.80;94.10;;;;;;5014240;28;20038;-69
2021/06/10 02:26:12;;;;;;;1.10;1.00;;;9.80;94.20;;;;;;5014548;28;20506;-68
2021/06/10 02:28:40;;;;;;;0.82;0.82;;;9.80;93.80;;;;;;5017246;28;20041;-69
2021/06/10 02:31:08;;;;;;;1.42;0.80;;;9.70;93.80;;;;;;5018842;28;20040;-68
2021/06/10 02:33:38;;;;;;;1.08;0.70;;;9.70;94.10;;;;;;5016545;28;20024;-69
2021/06/10 02:36:10;;;;;;;3.90;2.53;;;9.60;94.10;;;;;;5021136;28;20096;-71
2021/06/10 02:38:39;;;;;;;2.15;1.27;;;9.60;93.30;;;;;;5018767;28;20030;-68
2021/06/10 02:41:08;;;;;;;3.50;2.15;;;9.60;93.70;;;;;;5017834;28;20029;-67
2021/06/10 02:43:35;;;;;;;1.80;1.42;;;9.50;94.30;;;;;;5029694;28;20033;-68
2021/06/10 02:46:03;;;;;;;3.20;2.17;;;9.50;94.50;;;;;;5029699;28;20057;-69
2021/06/10 02:48:31;;;;;;;1.30;0.93;;;9.50;94.30;;;;;;5030134;28;20036;-69
2021/06/10 02:50:59;;;;;;;3.70;2.42;;;9.60;94.90;;;;;;5026564;28;20030;-69
2021/06/10 02:53:30;;;;;;;2.03;1.10;;;9.60;94.80;;;;;;5031452;28;20021;-68
2021/06/10 02:56:01;;;;;;;1.60;0.82;;;9.60;94.50;;;;;;5026070;28;20033;-71
2021/06/10 02:58:29;;;;;;;2.10;1.55;;;9.50;94.80;;;;;;5012543;28;20036;-68
2021/06/10 03:00:58;;;;;;;3.58;2.78;;;9.50;94.80;;;;;;5030431;28;20080;-68
2021/06/10 03:03:26;;;;;;;2.75;1.88;;;9.60;94.70;;;;;;5030778;28;20032;-68
2021/06/10 03:05:56;;;;;;;2.22;1.75;;;9.60;94.90;;;;;;5030839;28;20099;-71
2021/06/10 03:08:24;;;;;;;2.25;1.73;;;9.70;95.20;;;;;;5026223;28;20057;-69
2021/06/10 03:10:54;;;;;;;5.85;2.15;;;9.70;94.80;;;;;;5030547;28;20506;-70
2021/06/10 03:13:22;;;;;;;4.45;1.90;;;9.80;94.80;;;;;;5025782;28;20028;-68
2021/06/10 03:15:49;;;;;;;0.98;0.77;;;9.80;94.70;;;;;;5024119;28;20022;-66
2021/06/10 03:18:17;;;;;;;1.23;0.73;;;9.80;94.00;;;;;;5012569;28;20033;-70
2021/06/10 03:20:45;;;;;;;1.20;0.60;;;9.70;94.60;;;;;;5030124;28;20088;-68
2021/06/10 03:23:13;;;;;;;0.32;0.32;;;9.70;94.40;;;;;;5030154;28;20030;-69
2021/06/10 03:25:42;;;;;;;0.30;0.30;;;9.80;94.00;;;;;;5030194;28;20032;-66
2021/06/10 03:28:09;;;;;;;2.63;1.58;;;9.80;94.30;;;;;;4679835;28;10000145;-66
2021/06/10 03:30:37;;;;;;;3.50;2.42;;;9.80;94.00;;;;;;5004954;28;20021;-69
2021/06/10 03:33:06;;;;;;;3.22;1.58;;;9.70;94.70;;;;;;5020166;28;20024;-67
2021/06/10 03:35:37;;;;;;;0.95;0.70;;;9.80;94.80;;;;;;5023749;28;20372;-66
2021/06/10 03:38:05;;;;;;;0.70;0.50;;;9.80;95.00;;;;;;5022918;28;20030;-66
2021/06/10 03:40:33;;;;;;;2.20;0.93;;;9.80;94.30;;;;;;5028036;28;20799;-66
2021/06/10 03:43:02;;;;;;;1.08;0.60;;;9.90;94.40;;;;;;5040713;28;20017;-66
2021/06/10 03:45:29;;;;;;;1.23;0.70;;;9.90;94.70;;;;;;5026340;28;20029;-69
2021/06/10 03:47:56;;;;;;;1.30;0.85;;;9.80;94.70;;;;;;5025322;28;20034;-68
2021/06/10 03:50:25;;;;;;;1.02;0.80;;;9.80;95.10;;;;;;5023155;28;20083;-68
2021/06/10 03:52:52;;;;;;;0.98;0.88;;;9.80;94.60;;;;;;5027315;28;20021;-67
2021/06/10 03:55:19;;;;;;;1.60;1.00;;;9.80;94.70;;;;;;5018220;28;20087;-70
2021/06/10 03:57:46;;;;;;;3.17;1.17;;;9.70;94.80;;;;;;5023975;28;20029;-70
2021/06/10 04:00:13;;;;;;;3.40;1.80;;;9.70;95.10;;;;;;5013451;28;20032;-66
2021/06/10 04:02:40;;;;;;;5.00;1.98;;;9.70;95.00;;;;;;5012442;28;20113;-69
2021/06/10 04:05:08;;;;;;;5.00;2.85;;;9.70;94.30;;;;;;5012965;28;20050;-67
2021/06/10 04:07:35;;;;;;;2.55;1.05;;;9.70;94.30;;;;;;5020331;28;20060;-69
2021/06/10 04:10:04;;;;;;;1.65;0.85;;;9.70;94.10;;;;;;5027435;28;20022;-70
2021/06/10 04:12:31;;;;;;;1.40;0.80;;;9.70;94.30;;;;;;5027019;28;20025;-70
2021/06/10 04:14:58;;;;;;;1.05;0.73;;;9.60;94.30;;;;;;5027589;28;20464;-70
2021/06/10 04:17:25;;;;;;;1.33;0.70;;;9.60;94.30;;;;;;5027886;28;20024;-66
2021/06/10 04:19:52;;;;;;;2.80;2.10;;;9.60;94.90;;;;;;5027757;28;20022;-68
2021/06/10 04:22:19;;;;;;;6.55;3.55;;;9.60;94.50;;;;;;5022491;28;20213;-69
2021/06/10 04:24:46;;;;;;;4.35;3.78;;;9.70;94.20;;;;;;5027455;28;20017;-67
2021/06/10 04:27:13;;;;;;;3.58;2.47;;;9.70;94.40;;;;;;5016774;28;20025;-66
2021/06/10 04:29:40;;;;;;;5.57;4.60;;;9.60;94.10;;;;;;5015654;28;20107;-69
2021/06/10 04:32:07;;;;;;;1.88;1.30;;;9.50;94.30;;;;;;5017407;28;20049;-70
2021/06/10 04:34:34;;;;;;;6.00;4.00;;;9.50;94.80;;;;;;5016066;28;20021;-67
2021/06/10 04:37:01;;;;;;;2.28;0.98;;;9.50;94.40;;;;;;5020036;28;20484;-66
2021/06/10 04:39:28;;;;;;;3.05;1.30;;;9.50;93.40;;;;;;5016501;28;20025;-66
2021/06/10 04:41:55;;;;;;;2.85;1.77;;;9.30;94.30;;;;;;5019613;28;20100;-67
2021/06/10 04:44:22;;;;;;;3.00;2.15;;;9.30;94.60;;;;;;5017032;28;20044;-70
2021/06/10 04:46:49;;;;;;;6.85;4.15;;;9.30;94.70;;;;;;5013019;28;20030;-67
2021/06/10 04:49:16;;;;;;;1.67;1.05;;;9.30;94.70;;;;;;5018907;28;20022;-67
2021/06/10 04:51:43;;;;;;;2.92;1.60;;;9.20;94.20;;;;;;5018767;28;20021;-67
2021/06/10 04:54:10;;;;;;;1.88;1.30;;;9.20;94.30;;;;;;5016415;28;20037;-67
2021/06/10 04:56:37;;;;;;;0.95;0.82;;;9.20;94.70;;;;;;5019964;28;20023;-71
2021/06/10 04:59:04;;;;;;;1.63;1.00;;;9.20;94.10;;;;;;5014799;28;20527;-67
2021/06/10 05:01:32;;;;;;;1.30;1.20;;;9.20;94.20;;;;;;5014037;28;20018;-69
2021/06/10 05:03:59;;;;;;;1.42;0.85;;;9.10;94.40;;;;;;5014471;28;20041;-65
2021/06/10 05:06:26;;;;;;;1.80;1.10;;;9.00;94.60;;;;;;5016768;28;20120;-69
2021/06/10 05:08:53;;;;;;;4.18;1.13;;;9.00;95.00;;;;;;5011951;28;20816;-68
2021/06/10 05:11:20;;;;;;;2.35;1.00;;;9.00;95.10;;;;;;5014017;28;20030;-67
2021/06/10 05:13:47;;;;;;;3.83;1.10;;;8.90;95.00;;;;;;5018693;28;20021;-72
2021/06/10 05:16:14;;;;;;;2.25;1.00;;;8.90;95.50;;;;;;5022047;28;20029;-66
2021/06/10 05:18:42;;;;;;;2.70;1.40;;;8.90;94.80;;;;;;5022450;28;20145;-68
2021/06/10 05:21:09;;;;;;;1.95;1.13;;;8.80;94.80;;;;;;5022472;28;20021;-66
2021/06/10 05:23:38;;;;;;;2.65;1.42;;;8.80;95.00;;;;;;5024937;28;20029;-65
2021/06/10 05:26:06;;;;;;;4.22;2.30;;;8.80;94.70;;;;;;5025213;28;20056;-65
2021/06/10 05:28:36;;;;;;;2.80;1.88;;;8.70;95.30;;;;;;5027311;28;20583;-67
2021/06/10 05:31:07;;;;;;;2.67;1.90;;;8.80;95.60;;;;;;4999748;28;20030;-67
2021/06/10 05:33:52;;;;;;;1.80;1.35;;;8.80;95.60;;;;;;5014395;28;20084;-69
2021/06/10 05:36:19;;;;;;;2.17;1.42;;;8.90;95.70;;;;;;5024420;28;20056;-67
2021/06/10 05:38:46;;;;;;;2.65;2.15;;;8.80;95.30;;;;;;5027143;28;20477;-66
2021/06/10 05:41:13;;;;;;;2.08;1.58;;;8.80;95.10;;;;;;5022878;28;20033;-69
2021/06/10 05:43:40;;;;;;;2.05;1.15;;;8.80;95.30;;;;;;5023170;28;20576;-65
2021/06/10 05:46:08;;;;;;;2.97;1.55;;;8.70;95.30;;;;;;5025049;28;20032;-66
2021/06/10 05:48:35;;;;;;;3.25;1.42;;;8.80;95.40;;;;;;5021986;28;20037;-67
2021/06/10 05:51:02;;;;;;;20.92;14.35;;;8.80;95.50;;;;;;5009564;28;20060;-66
2021/06/10 05:53:30;;;;;;;5.93;4.00;;;8.70;95.20;;;;;;5009675;28;20561;-67
2021/06/10 05:55:57;;;;;;;6.70;4.20;;;8.70;95.20;;;;;;5020785;28;20499;-68
2021/06/10 05:58:24;;;;;;;3.20;1.98;;;8.60;95.40;;;;;;4997229;28;20061;-68
2021/06/10 06:00:51;;;;;;;2.45;1.50;;;8.60;95.60;;;;;;5024133;28;20041;-68
2021/06/10 06:03:18;;;;;;;1.42;1.10;;;8.60;95.70;;;;;;5019817;28;20037;-68
2021/06/10 06:05:45;;;;;;;0.95;0.70;;;8.60;96.00;;;;;;5029006;28;20784;-70
2021/06/10 06:08:14;;;;;;;1.38;0.88;;;8.60;95.60;;;;;;5014980;28;20128;-70
2021/06/10 06:10:41;;;;;;;1.95;1.00;;;8.60;95.80;;;;;;5026387;28;20163;-69
2021/06/10 06:13:09;;;;;;;1.63;1.10;;;8.60;95.10;;;;;;5021014;28;20025;-66
2021/06/10 06:15:36;;;;;;;1.75;1.20;;;8.50;95.30;;;;;;5022139;28;20475;-69
2021/06/10 06:18:03;;;;;;;2.42;1.35;;;8.50;95.30;;;;;;5021472;28;20044;-69
2021/06/10 06:20:30;;;;;;;2.78;1.88;;;8.40;95.30;;;;;;5035734;28;20496;-70
2021/06/10 06:22:57;;;;;;;2.72;2.30;;;8.40;95.80;;;;;;5029327;28;20021;-65
2021/06/10 06:25:24;;;;;;;3.13;2.47;;;8.40;95.80;;;;;;5027049;28;20571;-65
2021/06/10 06:27:51;;;;;;;4.15;2.97;;;8.40;96.10;;;;;;5032102;28;20511;-69
2021/06/10 06:30:18;;;;;;;4.00;3.03;;;8.40;95.90;;;;;;5029699;28;20022;-68
2021/06/10 06:32:45;;;;;;;4.82;4.13;;;8.30;95.90;;;;;;5028653;28;20025;-66
2021/06/10 06:35:13;;;;;;;4.30;3.25;;;8.30;95.90;;;;;;5021058;28;20445;-69
2021/06/10 06:37:39;;;;;;;4.55;3.22;;;8.20;95.80;;;;;;5026994;28;20722;-66
2021/06/10 06:40:08;;;;;;;3.45;2.78;;;8.20;95.90;;;;;;5026251;28;20099;-68
2021/06/10 06:42:36;;;;;;;4.97;3.40;;;8.10;96.00;;;;;;5028291;28;20048;-68
2021/06/10 06:45:07;;;;;;;4.75;4.00;;;8.10;96.20;;;;;;5028633;28;20120;-67
2021/06/10 06:47:34;;;;;;;4.93;3.60;;;8.10;96.30;;;;;;5019404;28;20440;-68
2021/06/10 06:50:02;;;;;;;5.03;3.80;;;8.10;96.40;;;;;;5020032;28;20018;-67
2021/06/10 06:52:29;;;;;;;3.38;2.55;;;8.10;96.10;;;;;;5026473;28;20030;-71
2021/06/10 06:54:56;;;;;;;3.10;2.25;;;8.10;96.00;;;;;;5028267;28;20025;-72
2021/06/10 06:57:23;;;;;;;2.15;1.85;;;8.00;96.10;;;;;;5024468;28;20022;-69
2021/06/10 06:59:50;;;;;;;2.50;1.67;;;8.00;96.20;;;;;;5026671;28;20480;-69
2021/06/10 07:02:17;;;;;;;1.80;1.55;;;8.00;96.50;;;;;;5023351;28;20520;-69
2021/06/10 07:04:44;;;;;;;2.63;1.70;;;8.00;96.60;;;;;;5064253;22;20550;-70
2021/06/10 07:07:11;;;;;;;1.75;1.50;;;8.00;96.50;;;;;;5041537;28;20109;-70
2021/06/10 07:09:38;;;;;;;2.55;1.45;;;8.00;96.60;;;;;;5020244;28;20037;-71
2021/06/10 07:12:05;;;;;;;3.05;1.65;;;8.10;96.90;;;;;;5022261;28;20482;-69
2021/06/10 07:14:32;;;;;;;2.05;1.52;;;8.00;96.50;;;;;;5029187;28;20032;-69
2021/06/10 07:16:59;;;;;;;2.72;1.70;;;8.00;96.30;;;;;;5038207;28;20087;-70
2021/06/10 07:19:26;;;;;;;3.83;2.20;;;8.00;96.30;;;;;;5042443;28;20033;-72
2021/06/10 07:21:53;;;;;;;3.17;1.73;;;8.10;96.60;;;;;;5046699;28;20067;-69
2021/06/10 07:24:20;;;;;;;3.58;1.95;;;8.10;96.80;;;;;;5038357;28;21717;-69
2021/06/10 07:26:47;;;;;;;1.95;1.60;;;8.10;96.70;;;;;;5036093;28;20021;-69
2021/06/10 07:29:16;;;;;;;2.38;1.40;;;8.10;96.70;;;;;;5046108;28;20542;-67
2021/06/10 07:31:45;;;;;;;2.88;2.05;;;8.10;96.80;;;;;;5043285;28;20033;-70
2021/06/10 07:34:12;;;;;;;2.28;1.90;;;8.10;96.70;;;;;;5036086;28;20124;-69
2021/06/10 07:36:40;;;;;;;2.60;2.05;;;8.10;96.90;;;;;;5034049;28;20502;-67
2021/06/10 07:39:08;;;;;;;3.42;2.25;;;8.10;96.70;;;;;;5037102;28;20036;-68
2021/06/10 07:41:39;;;;;;;3.67;2.22;;;8.10;96.50;;;;;;5032763;28;20486;-68
2021/06/10 07:44:06;;;;;;;4.68;2.42;;;8.10;96.50;;;;;;5033247;28;20025;-66
2021/06/10 07:46:33;;;;;;;3.13;2.63;;;8.10;96.20;;;;;;5018724;28;21073;-70
2021/06/10 07:49:00;;;;;;;3.13;2.83;;;8.10;96.50;;;;;;5038020;28;20029;-68
2021/06/10 07:51:28;;;;;;;5.88;3.72;;;8.20;96.70;;;;;;5045743;28;20476;-66
2021/06/10 07:53:54;;;;;;;7.03;3.88;;;8.10;96.70;;;;;;5047012;28;20082;-67
2021/06/10 07:56:21;;;;;;;8.90;6.25;;;8.10;96.80;;;;;;5039232;28;20125;-71
2021/06/10 07:58:48;;;;;;;6.68;4.68;;;8.10;96.70;;;;;;5044688;28;20029;-68
2021/06/10 08:01:15;;;;;;;7.10;5.43;;;8.20;96.30;;;;;;5028298;28;20028;-69
2021/06/10 08:03:42;;;;;;;6.90;4.90;;;8.20;96.40;;;;;;5037904;28;20542;-72
2021/06/10 08:06:09;;;;;;;6.28;5.35;;;8.10;96.40;;;;;;5043233;28;20048;-68
2021/06/10 08:08:37;;;;;;;3.92;2.75;;;8.10;96.90;;;;;;5042364;28;20044;-68
2021/06/10 08:11:10;;;;;;;5.20;3.50;;;8.10;96.70;;;;;;5041794;28;20021;-69
2021/06/10 08:13:37;;;;;;;2.22;1.70;;;8.10;96.70;;;;;;5038049;28;20025;-66
2021/06/10 08:16:05;;;;;;;6.90;4.40;;;8.10;96.20;;;;;;5035119;28;20036;-69
2021/06/10 08:18:32;;;;;;;8.02;5.10;;;8.10;96.30;;;;;;5038762;28;20029;-70
2021/06/10 08:21:00;;;;;;;4.88;3.58;;;8.10;96.20;;;;;;5019332;28;20024;-67
2021/06/10 08:23:29;;;;;;;4.13;2.88;;;8.00;96.20;;;;;;5041173;28;20028;-68
2021/06/10 08:25:59;;;;;;;3.13;2.25;;;8.10;96.50;;;;;;5039460;28;20020;-68
2021/06/10 08:28:28;;;;;;;2.50;1.70;;;8.10;96.20;;;;;;5043147;28;20089;-69
2021/06/10 08:30:56;;;;;;;2.15;1.67;;;8.00;96.10;;;;;;5041996;28;20021;-68
2021/06/10 08:33:23;;;;;;;1.75;1.42;;;7.90;96.40;;;;;;5037113;28;20029;-71
2021/06/10 08:35:56;;;;;;;3.35;1.80;;;7.90;96.20;;;;;;5043026;28;20025;-69
2021/06/10 08:38:23;;;;;;;2.38;1.75;;;7.90;96.00;;;;;;5042532;28;20032;-69
2021/06/10 08:40:50;;;;;;;3.65;2.83;;;7.90;96.40;;;;;;5016290;28;20036;-70
2021/06/10 08:43:17;;;;;;;2.70;1.73;;;7.90;96.40;;;;;;5038563;28;20121;-69
2021/06/10 08:45:47;;;;;;;4.63;2.38;;;7.90;96.40;;;;;;5017427;28;20555;-68
2021/06/10 08:48:14;;;;;;;3.30;1.85;;;7.80;96.50;;;;;;5038763;28;20162;-69
2021/06/10 08:50:42;;;;;;;7.93;2.00;;;7.90;96.40;;;;;;5029447;28;20021;-70
2021/06/10 08:53:11;;;;;;;4.13;2.22;;;8.00;96.40;;;;;;5031047;28;20048;-71
2021/06/10 08:55:38;;;;;;;3.90;2.17;;;8.00;96.70;;;;;;5033095;28;20038;-69
2021/06/10 08:58:05;;;;;;;2.75;2.38;;;8.00;96.50;;;;;;5008442;28;20032;-72
2021/06/10 09:00:32;;;;;;;2.95;2.67;;;8.10;96.40;;;;;;5033559;28;20044;-68
2021/06/10 09:03:01;;;;;;;3.42;2.40;;;8.00;96.60;;;;;;5034644;28;20029;-67
2021/06/10 09:05:30;;;;;;;2.45;2.25;;;8.10;96.40;;;;;;5029068;28;20749;-68
2021/06/10 09:08:09;;;;;;;2.60;2.30;;;8.00;96.00;;;;;;5029317;28;20036;-68
2021/06/10 09:10:37;;;;;;;4.32;2.75;;;8.00;96.60;;;;;;5028171;28;20135;-68
2021/06/10 09:13:06;;;;;;;7.57;4.00;;;8.00;96.80;;;;;;5038465;28;20441;-69
2021/06/10 09:15:37;;;;;;;3.95;2.97;;;8.00;97.00;;;;;;5030006;28;20630;-67
2021/06/10 09:18:05;;;;;;;4.20;2.25;;;8.00;97.00;;;;;;5009698;28;20418;-67
2021/06/10 09:20:45;;;;;;;3.22;2.13;;;8.10;97.30;;;;;;5030291;28;20085;-68
2021/06/10 09:23:24;;;;;;;3.10;2.40;;;8.10;96.90;;;;;;5033238;28;20025;-70
2021/06/10 09:26:05;;;;;;;4.35;2.40;;;8.10;97.00;;;;;;5028462;28;20043;-71
2021/06/10 09:28:39;;;;;;;3.15;2.10;;;8.10;97.40;;;;;;5032162;28;20029;-70
2021/06/10 09:31:06;;;;;;;3.25;2.38;;;8.10;97.40;;;;;;5033276;28;20013;-71
2021/06/10 09:33:42;;;;;;;2.75;2.00;;;8.10;97.10;;;;;;5032014;28;20076;-70
2021/06/10 09:36:14;;;;;;;5.82;3.20;;;8.10;97.50;;;;;;5034710;28;20028;-71
2021/06/10 09:38:41;;;;;;;5.50;3.05;;;8.10;97.10;;;;;;5037244;28;20056;-71
2021/06/10 09:41:08;;;;;;;5.47;2.17;;;8.10;97.50;;;;;;5032103;28;20060;-73
2021/06/10 09:43:45;;;;;;;2.72;2.15;;;8.10;97.60;;;;;;5038062;28;20025;-70
2021/06/10 09:46:12;;;;;;;3.78;2.60;;;8.10;97.40;;;;;;5031021;28;20490;-67
2021/06/10 09:48:39;;;;;;;5.15;2.13;;;8.10;97.40;;;;;;5038557;28;20062;-75
2021/06/10 09:51:19;;;;;;;3.55;2.47;;;8.10;97.30;;;;;;5039303;28;20051;-65
2021/06/10 09:53:46;;;;;;;3.10;2.50;;;8.10;97.40;;;;;;5039987;28;20025;-68
2021/06/10 09:56:13;;;;;;;3.60;2.08;;;8.20;97.10;;;;;;5043623;28;20108;-70
2021/06/10 09:58:42;;;;;;;2.75;2.25;;;8.20;97.30;;;;;;5030984;28;20055;-69
2021/06/10 10:01:16;;;;;;;2.63;2.30;;;8.10;97.10;;;;;;5040001;28;20495;-71
2021/06/10 10:03:46;;;;;;;3.55;2.13;;;8.20;97.10;;;;;;5038351;28;20057;-70
2021/06/10 10:06:21;;;;;;;4.82;2.70;;;8.20;97.10;;;;;;5036296;28;20060;-74
2021/06/10 10:09:08;;;;;;;5.07;3.25;;;8.10;97.30;;;;;;5037084;28;20056;-67
2021/06/10 10:11:35;;;;;;;4.80;2.60;;;8.10;97.40;;;;;;5039443;28;20033;-67
2021/06/10 10:14:08;;;;;;;4.43;3.13;;;8.10;97.20;;;;;;5044110;28;20081;-65
2021/06/10 10:16:37;;;;;;;5.15;2.85;;;8.10;97.00;;;;;;5045241;28;20076;-65
2021/06/10 10:19:05;;;;;;;3.38;2.70;;;8.10;97.00;;;;;;5040334;28;20045;-70
2021/06/10 10:21:36;;;;;;;4.93;3.05;;;8.10;96.90;;;;;;5036588;28;20112;-73
2021/06/10 10:24:05;;;;;;;6.78;3.92;;;8.10;97.00;;;;;;5038765;28;20032;-68
2021/06/10 10:26:33;;;;;;;5.38;3.75;;;8.10;97.90;;;;;;5036068;28;20055;-72
2021/06/10 10:29:02;;;;;;;5.53;4.43;;;8.10;97.80;;;;;;5040380;28;20091;-70
2021/06/10 10:31:32;;;;;;;4.38;3.00;;;8.10;98.20;;;;;;5031116;28;20029;-67
2021/06/10 10:33:59;;;;;;;4.13;3.08;;;8.10;98.00;;;;;;5040892;28;20874;-75
2021/06/10 10:36:31;;;;;;;4.45;3.38;;;8.00;97.90;;;;;;5038205;28;20028;-68
2021/06/10 10:39:03;;;;;;;5.63;3.88;;;7.90;98.00;;;;;;5031608;28;20025;-68
2021/06/10 10:41:31;;;;;;;5.90;3.15;;;8.00;98.20;;;;;;5038263;28;20033;-71
2021/06/10 10:44:21;;;;;;;5.57;4.15;;;8.00;98.20;;;;;;5041823;28;20121;-71
2021/06/10 10:47:10;;;;;;;8.00;3.78;;;8.10;98.20;;;;;;5037237;28;20021;-69
2021/06/10 10:49:52;;;;;;;5.95;4.18;;;8.10;97.70;;;;;;5039984;28;20116;-71
2021/06/10 10:52:34;;;;;;;4.65;4.13;;;8.10;97.60;;;;;;5036765;28;20021;-67
2021/06/10 10:55:27;;;;;;;6.28;5.05;;;8.10;97.70;;;;;;5043277;28;20074;-70
2021/06/10 10:58:01;;;;;;;8.40;7.60;;;8.10;97.70;;;;;;5024267;28;20041;-69
2021/06/10 11:01:10;;;;;;;10.57;9.52;;;8.00;97.60;;;;;;5039655;28;20025;-71
2021/06/10 11:03:43;;;;;;;11.02;10.00;;;8.00;97.40;;;;;;5020039;28;20032;-69
2021/06/10 11:06:26;;;;;;;13.18;11.82;;;8.10;97.70;;;;;;5038086;28;20150;-67
2021/06/10 11:09:25;;;;;;;13.57;12.18;;;8.10;97.60;;;;;;5038786;28;20029;-68
2021/06/10 11:11:57;;;;;;;14.88;13.48;;;8.10;97.20;;;;;;5032402;28;20833;-68
2021/06/10 11:14:42;;;;;;;14.02;12.82;;;8.00;97.30;;;;;;5033262;28;20541;-70
2021/06/10 11:17:20;;;;;;;12.73;11.57;;;8.00;97.10;;;;;;5040581;28;20103;-70
2021/06/10 11:20:02;;;;;;;10.70;9.65;;;8.00;97.40;;;;;;5037891;28;20028;-74
2021/06/10 11:22:50;;;;;;;8.30;7.50;;;7.90;97.40;;;;;;5043869;28;20056;-74
2021/06/10 11:25:26;;;;;;;7.80;7.00;;;7.80;97.50;;;;;;5025752;28;20037;-72
2021/06/10 11:28:06;;;;;;;7.47;5.97;;;7.80;97.60;;;;;;5034040;28;20056;-72
2021/06/10 11:30:33;;;;;;;7.35;5.50;;;7.80;97.70;;;;;;5021634;28;20036;-71
2021/06/10 11:33:06;;;;;;;5.80;4.95;;;7.80;97.70;;;;;;5033039;28;20065;-70
2021/06/10 11:35:32;;;;;;;;;;;7.80;97.60;;;;;;5040019;28;20174;-70
2021/06/10 11:38:05;;;;;;;6.10;4.85;;;7.70;97.50;;;;;;5040418;28;19958;-69
2021/06/10 11:40:32;;;;;;;6.93;4.32;;;7.60;97.80;;;;;;5038736;28;20029;-72
2021/06/10 11:43:04;;;;;;;5.85;3.85;;;7.70;97.70;;;;;;5037652;28;20037;-67
2021/06/10 11:45:31;;;;;;;5.13;3.78;;;7.60;97.60;;;;;;5030866;28;20029;-69
2021/06/10 11:47:58;;;;;;;6.03;3.97;;;7.40;97.60;;;;;;5012942;28;20044;-73
2021/06/10 11:50:37;;;;;;;4.07;3.60;;;7.40;97.80;;;;;;5028260;28;20101;-72
2021/06/10 11:53:09;;;;;;;7.00;3.72;;;7.30;97.80;;;;;;5029741;28;20095;-72
2021/06/10 11:55:37;;;;;;;6.47;4.05;;;7.20;97.90;;;;;;5039318;28;20102;-71
2021/06/10 11:58:06;;;;;;;5.97;3.53;;;7.20;98.30;;;;;;5029207;28;20029;-70
2021/06/10 12:00:42;;;;;;;9.27;4.30;;;7.20;98.30;;;;;;5035435;28;20056;-71
2021/06/10 12:03:12;;;;;;;6.05;4.78;;;7.20;98.10;;;;;;5031198;28;20032;-70
2021/06/10 12:05:54;;;;;;;6.85;4.55;;;7.10;98.00;;;;;;5035113;28;20081;-70
2021/06/10 12:08:28;;;;;;;4.95;4.30;;;7.10;98.10;;;;;;5030401;28;20470;-69
2021/06/10 12:11:07;;;;;;;5.15;4.28;;;7.10;98.00;;;;;;5032550;28;20018;-69
2021/06/10 12:13:38;;;;;;;9.27;5.00;;;7.00;98.10;;;;;;5040724;28;20028;-70
2021/06/10 12:16:09;;;;;;;5.55;4.97;;;7.00;98.30;;;;;;5044854;28;20104;-70
2021/06/10 12:18:37;;;;;;;6.75;5.00;;;6.90;98.40;;;;;;5034815;28;20415;-69
2021/06/10 12:21:12;;;;;;;6.38;4.30;;;6.80;98.40;;;;;;5045561;28;20826;-70
2021/06/10 12:23:42;;;;;;;5.75;4.90;;;6.70;98.50;;;;;;5035636;28;20021;-72
2021/06/10 12:26:15;;;;;;;9.75;4.95;;;6.80;98.70;;;;;;5039077;28;20036;-70
2021/06/10 12:28:47;;;;;;;;;;;6.70;98.80;;;;;;5043345;28;20167;-70
2021/06/10 12:31:21;;;;;;;6.80;6.10;;;6.70;98.70;;;;;;5045028;28;19912;-71
2021/06/10 12:33:53;;;;;;;9.23;5.57;;;6.60;98.70;;;;;;5039605;28;20100;-71
2021/06/10 12:36:39;;;;;;;7.10;5.18;;;6.50;98.70;;;;;;5023948;28;20357;-71
2021/06/10 12:39:11;;;;;;;6.55;5.15;;;6.50;98.80;;;;;;5043957;28;20044;-69
2021/06/10 12:41:47;;;;;;;6.05;5.45;;;6.40;98.80;;;;;;5034951;28;20026;-69
2021/06/10 12:44:15;;;;;;;10.55;5.53;;;6.40;98.60;;;;;;5046871;28;20029;-69
2021/06/10 12:46:52;;;;;;;10.77;6.10;;;6.30;98.60;;;;;;4690344;28;9999868;-69
2021/06/10 12:49:43;;;;;;;9.00;6.55;;;6.20;98.90;;;;;;5040214;28;20033;-70
2021/06/10 12:52:21;;;;;;;7.97;5.85;;;6.20;98.90;;;;;;5020179;28;20029;-70
2021/06/10 12:54:50;;;;;;;8.25;6.50;;;6.20;99.10;;;;;;5040409;28;20028;-69
2021/06/10 12:57:22;;;;;;;10.25;8.35;;;6.20;99.20;;;;;;5044797;28;20056;-70
2021/06/10 13:00:00;;;;;;;17.08;9.10;;;6.30;99.40;;;;;;5046181;28;20021;-70
2021/06/10 13:02:29;;;;;;;20.45;10.23;;;6.40;98.90;;;;;;5027770;28;20045;-69
2021/06/10 13:04:59;;;;;;;19.65;10.40;;;6.40;99.00;;;;;;5045724;28;20052;-69
2021/06/10 13:07:29;;;;;;;73.97;14.98;;;6.40;99.20;;;;;;5040381;28;20025;-70
2021/06/10 13:09:58;;;;;;;17.85;12.13;;;6.40;99.30;;;;;;5013690;28;20103;-71